Time;durP1;ratioP1;P1;durP2;ratioP2;P2;SDS_P1;SDS_P2;PMS_P1;PMS_P2;Temp;Humidity;BMP_temperature;BMP_pressure;BME280_temperature;BME280_humidity;BME280_pressure;Samples;Min_cycle;Max_cycle;Signal;HPM_P1;HPM_P2
2023/09/28 00:01:47;;;;;;;7.40;6.00;;;;;;;19.25;62.20;101284.16;5034823;27;97532;-56
2023/09/28 00:04:13;;;;;;;8.60;7.20;;;;;;;19.26;62.19;101293.28;5033881;27;97219;-56
2023/09/28 00:06:38;;;;;;;7.70;7.00;;;;;;;19.26;62.18;101284.91;5036395;27;97148;-56
2023/09/28 00:09:04;;;;;;;9.40;7.00;;;;;;;19.23;62.33;101288.75;5032895;27;97438;-55
2023/09/28 00:11:29;;;;;;;7.87;7.17;;;;;;;19.22;62.35;101290.78;5037413;27;96798;-56
2023/09/28 00:13:55;;;;;;;7.30;6.60;;;;;;;19.21;62.47;101289.31;5039798;27;97435;-56
2023/09/28 00:16:20;;;;;;;8.23;7.43;;;;;;;19.19;62.44;101307.88;5033434;27;112153;-55
2023/09/28 00:18:46;;;;;;;8.23;6.90;;;;;;;19.18;62.53;101293.16;5036365;27;98028;-56
2023/09/28 00:21:11;;;;;;;7.90;7.03;;;;;;;19.17;62.50;101297.25;5036678;27;96753;-56
2023/09/28 00:23:36;;;;;;;7.83;7.13;;;;;;;19.15;62.58;101299.84;5034812;27;101073;-55
2023/09/28 00:26:02;;;;;;;7.97;7.23;;;;;;;19.14;62.58;101300.34;5035939;27;97038;-56
2023/09/28 00:28:27;;;;;;;7.13;6.43;;;;;;;19.13;62.35;101307.97;5035033;27;97215;-55
2023/09/28 00:30:53;;;;;;;8.30;7.60;;;;;;;19.11;62.55;101296.59;5037262;27;97338;-55
2023/09/28 00:33:18;;;;;;;8.20;7.37;;;;;;;19.10;62.65;101297.88;5037452;27;96710;-55
2023/09/28 00:35:43;;;;;;;7.27;6.57;;;;;;;19.09;62.60;101298.44;5035114;27;96851;-55
2023/09/28 00:38:09;;;;;;;8.10;7.30;;;;;;;19.07;62.51;101287.78;5035858;27;97369;-56
2023/09/28 00:40:39;;;;;;;7.57;6.83;;;;;;;19.05;62.59;101284.78;5034465;27;96984;-56
2023/09/28 00:43:05;;;;;;;7.90;7.17;;;;;;;19.05;62.71;101287.59;5035422;27;97063;-56
2023/09/28 00:45:30;;;;;;;7.20;6.40;;;;;;;19.07;62.72;101292.63;5035345;27;97253;-55
2023/09/28 00:48:00;;;;;;;7.43;6.70;;;;;;;19.08;62.66;101288.56;5037825;27;97300;-56
2023/09/28 00:50:27;;;;;;;8.37;7.43;;;;;;;19.07;62.65;101279.44;5031667;27;97279;-56
2023/09/28 00:53:00;;;;;;;7.60;6.93;;;;;;;19.05;62.86;101275.66;5036061;27;97253;-56
2023/09/28 00:55:27;;;;;;;7.97;7.17;;;;;;;19.03;62.81;101267.84;5037622;27;97121;-56
2023/09/28 00:57:57;;;;;;;7.87;7.07;;;;;;;19.04;62.79;101260.25;5039014;27;96935;-56
2023/09/28 01:00:29;;;;;;;8.47;7.00;;;;;;;19.02;62.99;101266.38;5037482;27;97064;-56
2023/09/28 01:03:00;;;;;;;7.53;6.83;;;;;;;19.03;63.02;101253.91;5035490;27;97071;-56
2023/09/28 01:05:34;;;;;;;7.10;6.40;;;;;;;19.00;62.88;101254.22;5037015;27;97213;-56
2023/09/28 01:08:09;;;;;;;7.00;6.40;;;;;;;18.98;63.07;101243.59;5032319;27;97250;-56
2023/09/28 01:10:36;;;;;;;7.57;6.90;;;;;;;18.96;62.84;101243.38;5034003;27;96724;-56
2023/09/28 01:13:12;;;;;;;8.00;6.77;;;;;;;18.95;62.91;101227.94;5034983;27;96774;-56
2023/09/28 01:15:39;;;;;;;6.93;6.33;;;;;;;18.90;63.07;101219.69;5034820;27;97150;-56
2023/09/28 01:18:07;;;;;;;7.30;6.60;;;;;;;18.88;63.09;101209.06;5038293;27;96683;-56
2023/09/28 01:20:37;;;;;;;7.23;6.57;;;;;;;18.87;63.23;101215.94;5033445;27;97492;-56
2023/09/28 01:23:04;;;;;;;6.80;6.20;;;;;;;18.86;63.18;101224.84;5033342;27;97268;-55
2023/09/28 01:25:29;;;;;;;7.40;6.73;;;;;;;18.85;63.16;101215.72;5034550;27;97891;-56
2023/09/28 01:27:55;;;;;;;7.17;6.47;;;;;;;18.85;63.20;101224.09;5036635;27;97158;-56
2023/09/28 01:30:20;;;;;;;8.17;7.37;;;;;;;18.86;63.23;101225.59;5034784;27;97184;-55
2023/09/28 01:32:46;;;;;;;7.07;6.47;;;;;;;18.86;63.11;101225.59;5033376;27;97423;-55
2023/09/28 01:35:11;;;;;;;6.50;5.90;;;;;;;18.86;63.14;101222.06;5034206;27;96754;-56
2023/09/28 01:37:52;;;;;;;7.23;6.63;;;;;;;18.84;63.43;101221.84;5035676;27;97296;-55
2023/09/28 01:40:18;;;;;;;6.10;5.53;;;;;;;18.81;63.17;101218.06;5039049;27;96884;-55
2023/09/28 01:42:43;;;;;;;6.73;6.13;;;;;;;18.83;63.21;101228.72;5050133;27;99360;-56
2023/09/28 01:45:09;;;;;;;7.67;6.97;;;;;;;18.82;63.11;101225.16;5035555;27;97214;-55
2023/09/28 01:47:34;;;;;;;6.73;6.13;;;;;;;18.82;62.98;101221.63;5034086;27;97357;-56
2023/09/28 01:50:00;;;;;;;6.70;6.10;;;;;;;18.81;63.21;101237.59;5035024;27;96958;-56
2023/09/28 01:52:26;;;;;;;6.67;6.10;;;;;;;18.82;63.17;101239.09;5033931;27;97767;-56
2023/09/28 01:54:51;;;;;;;8.30;6.60;;;;;;;18.78;63.08;101216.38;5033349;27;97118;-56
2023/09/28 01:57:17;;;;;;;9.10;6.07;;;;;;;18.78;63.38;101230.31;5039189;27;97013;-56
2023/09/28 01:59:42;;;;;;;8.67;6.97;;;;;;;18.79;63.25;101240.16;5035470;27;96789;-56
2023/09/28 02:02:08;;;;;;;8.27;6.40;;;;;;;18.82;63.27;101255.06;5031975;27;97206;-55
2023/09/28 02:04:39;;;;;;;6.03;5.53;;;;;;;18.79;63.10;101237.38;5038013;27;97590;-56
2023/09/28 02:07:04;;;;;;;5.70;5.20;;;;;;;18.79;63.04;101240.16;5036523;27;97084;-55
2023/09/28 02:09:30;;;;;;;6.77;6.10;;;;;;;18.78;63.11;101251.88;5038377;27;96945;-56
2023/09/28 02:11:56;;;;;;;5.60;5.20;;;;;;;18.76;63.08;101246.84;5030995;27;96773;-55
2023/09/28 02:14:22;;;;;;;6.50;6.00;;;;;;;18.72;63.10;101260.31;5036028;27;96857;-56
2023/09/28 02:16:48;;;;;;;6.77;5.67;;;;;;;18.67;62.98;101253.56;5034956;27;101150;-55
2023/09/28 02:19:14;;;;;;;6.90;6.03;;;;;;;18.66;62.81;101260.44;5034503;27;97586;-56
2023/09/28 02:21:39;;;;;;;6.60;6.00;;;;;;;18.65;62.94;101244.25;5033379;27;97586;-56
2023/09/28 02:24:07;;;;;;;6.40;5.57;;;;;;;18.62;62.88;101245.31;5033819;27;110215;-55
2023/09/28 02:26:32;;;;;;;7.43;6.50;;;;;;;18.59;62.89;101240.78;5035739;27;97193;-55
2023/09/28 02:28:57;;;;;;;6.10;5.60;;;;;;;18.57;62.88;101248.94;5030649;27;96596;-55
2023/09/28 02:31:22;;;;;;;7.20;5.93;;;;;;;18.56;63.20;101250.22;5034092;27;108154;-56
2023/09/28 02:33:48;;;;;;;6.27;5.67;;;;;;;18.54;63.07;101245.16;5034830;27;105963;-55
2023/09/28 02:36:14;;;;;;;7.13;5.80;;;;;;;18.55;62.94;101237.56;5035488;27;100469;-56
2023/09/28 02:38:40;;;;;;;5.50;5.00;;;;;;;18.54;63.09;101231.25;5036058;27;97455;-56
2023/09/28 02:41:15;;;;;;;5.63;5.23;;;;;;;18.53;63.29;101234.56;5033858;27;97108;-55
2023/09/28 02:43:40;;;;;;;7.73;5.80;;;;;;;18.51;63.08;101231.56;5032070;27;97638;-55
2023/09/28 02:46:06;;;;;;;5.53;5.03;;;;;;;18.50;63.27;101230.81;5034753;27;100497;-55
2023/09/28 02:48:31;;;;;;;5.60;5.10;;;;;;;18.51;63.23;101234.34;5037924;27;96908;-55
2023/09/28 02:50:57;;;;;;;7.07;6.43;;;;;;;18.50;62.94;101235.66;5036210;27;96742;-56
2023/09/28 02:53:22;;;;;;;6.27;5.57;;;;;;;18.48;63.30;101238.19;5035667;27;97651;-55
2023/09/28 02:55:47;;;;;;;6.87;6.10;;;;;;;18.48;63.24;101227.03;5035178;27;96756;-56
2023/09/28 02:58:13;;;;;;;5.80;5.30;;;;;;;18.45;63.42;101237.25;5035366;27;97417;-56
2023/09/28 03:00:38;;;;;;;6.00;5.50;;;;;;;18.46;63.17;101230.38;5033903;27;97105;-56
2023/09/28 03:03:05;;;;;;;6.53;5.83;;;;;;;18.48;63.31;101225.03;5034807;27;97118;-55
2023/09/28 03:05:30;;;;;;;5.73;5.30;;;;;;;18.45;63.35;101214.19;5033621;27;97125;-55
2023/09/28 03:07:55;;;;;;;6.60;6.00;;;;;;;18.45;63.40;101216.97;5031687;27;96888;-56
2023/09/28 03:10:21;;;;;;;6.27;5.70;;;;;;;18.46;63.24;101210.13;5033043;27;97794;-55
2023/09/28 03:12:47;;;;;;;5.97;5.40;;;;;;;18.46;63.44;101212.91;5034338;27;112821;-56
2023/09/28 03:15:13;;;;;;;6.43;5.83;;;;;;;18.48;63.44;101218.69;5032437;27;98042;-56
2023/09/28 03:17:40;;;;;;;6.23;5.73;;;;;;;18.49;63.65;101223.00;5034131;27;97182;-56
2023/09/28 03:20:25;;;;;;;5.77;5.27;;;;;;;18.50;63.38;101218.94;5035322;27;97453;-56
2023/09/28 03:22:51;;;;;;;6.00;5.50;;;;;;;18.48;63.50;101232.63;5034893;27;97246;-55
2023/09/28 03:25:17;;;;;;;6.33;5.83;;;;;;;18.47;63.50;101225.56;5034775;27;97436;-55
2023/09/28 03:27:45;;;;;;;6.20;5.60;;;;;;;18.46;63.40;101233.16;5037910;27;97298;-55
2023/09/28 03:30:11;;;;;;;5.90;5.20;;;;;;;18.46;63.53;101230.38;5038530;27;97310;-55
2023/09/28 03:32:40;;;;;;;6.03;5.53;;;;;;;18.47;63.47;101220.00;5036383;27;97477;-55
2023/09/28 03:35:16;;;;;;;6.90;5.83;;;;;;;18.46;63.61;101224.03;5036099;27;96955;-56
2023/09/28 03:37:42;;;;;;;8.90;5.90;;;;;;;18.44;63.64;101218.22;5037672;27;97045;-56
2023/09/28 03:40:12;;;;;;;5.83;5.33;;;;;;;18.39;63.45;101210.75;5036042;27;97264;-55
2023/09/28 03:42:42;;;;;;;6.70;5.40;;;;;;;18.41;63.49;101224.88;5037549;27;96920;-55
2023/09/28 03:45:09;;;;;;;6.33;5.83;;;;;;;18.39;63.44;101213.53;5040201;27;97280;-55
2023/09/28 03:47:39;;;;;;;5.73;5.23;;;;;;;18.37;63.50;101216.81;5030759;27;97111;-55
2023/09/28 03:50:06;;;;;;;6.40;5.77;;;;;;;18.35;63.47;101207.50;5038933;27;100090;-56
2023/09/28 03:52:34;;;;;;;6.30;4.83;;;;;;;18.33;63.51;101208.03;5034860;27;97233;-55
2023/09/28 03:54:59;;;;;;;5.67;5.17;;;;;;;18.34;63.40;101200.44;5035072;27;97402;-55
2023/09/28 03:57:24;;;;;;;6.03;5.53;;;;;;;18.34;63.58;101203.22;5037613;27;97123;-56
2023/09/28 03:59:50;;;;;;;5.37;4.97;;;;;;;18.33;63.62;101215.63;5036145;27;114000;-55
2023/09/28 04:02:15;;;;;;;5.53;5.03;;;;;;;18.33;63.72;101212.84;5040544;27;109646;-55
2023/09/28 04:04:40;;;;;;;5.67;5.20;;;;;;;18.34;63.55;101225.50;5034286;27;97204;-56
2023/09/28 04:07:07;;;;;;;5.40;5.00;;;;;;;18.34;63.64;101222.72;5042290;27;96875;-55
2023/09/28 04:09:32;;;;;;;6.23;5.07;;;;;;;18.35;63.62;101224.22;5034194;27;98215;-55
2023/09/28 04:11:58;;;;;;;5.70;5.20;;;;;;;18.36;63.73;101215.34;5036274;27;97158;-55
2023/09/28 04:14:24;;;;;;;6.47;5.20;;;;;;;18.36;63.86;101220.16;5037470;27;97400;-56
2023/09/28 04:16:49;;;;;;;5.27;4.87;;;;;;;18.36;63.65;101223.69;5036793;27;98245;-56
2023/09/28 04:19:14;;;;;;;5.53;5.10;;;;;;;18.36;63.62;101223.69;5036476;27;97427;-55
2023/09/28 04:21:40;;;;;;;7.10;4.90;;;;;;;18.39;63.63;101230.25;5035431;27;107246;-55
2023/09/28 04:24:06;;;;;;;4.83;4.47;;;;;;;18.39;63.71;101224.66;5035520;27;96836;-56
2023/09/28 04:26:31;;;;;;;5.27;4.77;;;;;;;18.39;63.59;101219.09;5034592;27;97243;-56
2023/09/28 04:28:56;;;;;;;5.50;5.00;;;;;;;18.39;63.73;101224.66;5037158;27;105079;-55
2023/09/28 04:31:21;;;;;;;5.90;5.10;;;;;;;18.39;63.60;101238.59;5038955;27;103618;-55
2023/09/28 04:33:47;;;;;;;5.33;4.87;;;;;;;18.39;63.86;101233.75;5035492;27;98946;-56
2023/09/28 04:36:12;;;;;;;5.73;5.03;;;;;;;18.40;63.79;101245.66;5036926;27;97175;-55
2023/09/28 04:38:38;;;;;;;7.87;5.20;;;;;;;18.42;63.82;101252.22;5036376;27;97134;-55
2023/09/28 04:41:03;;;;;;;5.37;4.87;;;;;;;18.43;63.77;101244.59;5035775;27;98017;-55
2023/09/28 04:43:29;;;;;;;5.20;4.70;;;;;;;18.40;63.96;101249.19;5035227;27;97091;-56
2023/09/28 04:45:54;;;;;;;5.73;5.33;;;;;;;18.38;63.65;101245.44;5036034;27;97487;-55
2023/09/28 04:48:20;;;;;;;6.20;5.70;;;;;;;18.37;63.87;101246.75;5036143;27;97352;-55
2023/09/28 04:50:45;;;;;;;5.97;5.30;;;;;;;18.32;63.82;101242.00;5035329;27;107701;-55
2023/09/28 04:53:10;;;;;;;5.93;5.10;;;;;;;18.29;63.88;101237.47;5033974;27;96629;-56
2023/09/28 04:55:36;;;;;;;5.37;4.90;;;;;;;18.25;64.01;101240.59;5034382;27;97184;-55
2023/09/28 04:58:01;;;;;;;7.03;5.77;;;;;;;18.25;64.09;101242.63;5036022;27;97300;-55
2023/09/28 05:00:27;;;;;;;5.40;4.30;;;;;;;18.27;64.05;101251.94;5034110;27;97120;-55
2023/09/28 05:02:53;;;;;;;5.87;5.03;;;;;;;18.30;64.07;101264.06;5034420;27;97296;-55
2023/09/28 05:05:19;;;;;;;5.17;4.70;;;;;;;18.32;64.11;101267.06;5037892;27;97657;-55
2023/09/28 05:07:44;;;;;;;5.60;5.07;;;;;;;18.35;64.21;101274.34;5035421;27;97229;-56
2023/09/28 05:10:10;;;;;;;5.60;4.90;;;;;;;18.37;64.30;101274.59;5034610;27;101051;-55
2023/09/28 05:12:35;;;;;;;5.03;4.57;;;;;;;18.39;64.07;101281.13;5032563;27;97752;-56
2023/09/28 05:15:01;;;;;;;5.47;4.97;;;;;;;18.41;64.15;101283.41;5035732;27;96868;-56
2023/09/28 05:17:27;;;;;;;5.27;4.83;;;;;;;18.39;64.11;101278.34;5038874;27;98008;-55
2023/09/28 05:19:53;;;;;;;4.70;4.30;;;;;;;18.39;64.15;101277.59;5035042;27;97367;-55
2023/09/28 05:22:18;;;;;;;5.80;5.20;;;;;;;18.41;64.17;101283.41;5036634;27;96669;-55
2023/09/28 05:24:45;;;;;;;5.20;4.70;;;;;;;18.42;64.14;101285.63;5035904;27;97701;-55
2023/09/28 05:27:11;;;;;;;5.03;4.37;;;;;;;18.41;63.85;101286.91;5036100;27;97895;-55
2023/09/28 05:29:36;;;;;;;5.20;4.80;;;;;;;18.42;64.20;101285.63;5034669;27;97318;-56
2023/09/28 05:32:02;;;;;;;5.20;4.80;;;;;;;18.43;64.04;101280.81;5034379;27;97691;-55
2023/09/28 05:34:28;;;;;;;5.63;4.90;;;;;;;18.41;64.17;101280.59;5038648;27;97268;-56
2023/09/28 05:36:53;;;;;;;8.43;5.20;;;;;;;18.40;64.14;101276.31;5035539;27;97146;-55
2023/09/28 05:39:18;;;;;;;5.63;5.07;;;;;;;18.40;64.15;101279.09;5034668;27;102059;-56
2023/09/28 05:41:44;;;;;;;5.33;4.83;;;;;;;18.39;64.24;101275.56;5036138;27;97344;-55
2023/09/28 05:44:09;;;;;;;4.73;4.33;;;;;;;18.41;64.26;101291.75;5038987;27;97082;-55
2023/09/28 05:46:35;;;;;;;5.73;4.87;;;;;;;18.43;64.26;101289.19;5037724;27;97143;-55
2023/09/28 05:49:01;;;;;;;4.70;4.30;;;;;;;18.44;64.06;101283.09;5035910;27;97171;-55
2023/09/28 05:51:27;;;;;;;5.90;4.97;;;;;;;18.45;64.12;101292.22;5035855;27;97172;-55
2023/09/28 05:53:53;;;;;;;5.53;5.03;;;;;;;18.48;64.28;101299.50;5034759;27;97317;-55
2023/09/28 05:56:18;;;;;;;4.90;4.43;;;;;;;18.48;64.23;101307.84;5033761;27;97741;-55
2023/09/28 05:58:44;;;;;;;5.10;4.70;;;;;;;18.51;64.04;101298.44;5035622;27;97589;-55
2023/09/28 06:01:13;;;;;;;5.17;4.77;;;;;;;18.53;64.35;101307.03;5033849;27;96949;-55
2023/09/28 06:03:39;;;;;;;4.40;4.00;;;;;;;18.55;64.34;101310.03;5034843;27;97354;-55
2023/09/28 06:06:15;;;;;;;4.87;4.57;;;;;;;18.57;64.20;101310.25;5033660;27;97250;-55
2023/09/28 06:08:41;;;;;;;6.53;4.87;;;;;;;18.58;64.26;101314.56;5033068;27;96831;-56
2023/09/28 06:11:10;;;;;;;4.93;4.50;;;;;;;18.62;64.33;101326.13;5038058;27;97333;-55
2023/09/28 06:13:36;;;;;;;5.70;5.20;;;;;;;18.64;64.51;101326.34;5035218;27;97074;-56
2023/09/28 06:16:01;;;;;;;5.20;4.70;;;;;;;18.66;64.40;101326.56;5035885;27;104684;-55
2023/09/28 06:18:26;;;;;;;5.83;5.23;;;;;;;18.69;64.23;101325.50;5033340;27;96911;-55
2023/09/28 06:20:52;;;;;;;5.03;4.53;;;;;;;18.72;64.43;101332.78;5033581;27;101239;-55
2023/09/28 06:23:18;;;;;;;4.93;4.43;;;;;;;18.75;64.35;101340.09;5035176;27;100136;-55
2023/09/28 06:25:44;;;;;;;5.80;5.20;;;;;;;18.79;64.20;101340.53;5032902;27;97311;-55
2023/09/28 06:28:10;;;;;;;5.03;4.63;;;;;;;18.82;64.26;101350.63;5034682;27;97236;-55
2023/09/28 06:30:35;;;;;;;5.23;4.83;;;;;;;18.87;64.38;101351.81;5039721;27;97340;-55
2023/09/28 06:33:00;;;;;;;4.60;4.30;;;;;;;18.89;64.45;101354.84;5031964;27;97282;-56
2023/09/28 06:35:26;;;;;;;5.30;4.90;;;;;;;18.92;64.28;101360.09;5033639;27;97278;-56
2023/09/28 06:37:52;;;;;;;6.73;5.13;;;;;;;18.91;64.23;101361.38;5032759;27;97218;-56
2023/09/28 06:40:17;;;;;;;4.73;4.40;;;;;;;18.93;64.34;101367.19;5032830;27;96683;-55
2023/09/28 06:42:43;;;;;;;5.70;5.07;;;;;;;18.94;64.29;101363.09;5034977;27;97446;-55
2023/09/28 06:45:09;;;;;;;6.00;4.90;;;;;;;18.98;64.31;101368.38;5035801;27;97162;-55
2023/09/28 06:47:34;;;;;;;5.60;5.10;;;;;;;18.98;64.56;101369.09;5032822;27;97757;-56
2023/09/28 06:49:59;;;;;;;5.87;4.27;;;;;;;19.01;64.42;101368.03;5036000;27;96848;-55
2023/09/28 06:52:25;;;;;;;5.90;5.30;;;;;;;19.03;64.56;101364.72;5033964;27;97167;-56
2023/09/28 06:54:50;;;;;;;5.07;4.67;;;;;;;19.04;64.40;101364.19;5033152;27;97662;-55
2023/09/28 06:57:16;;;;;;;5.37;4.87;;;;;;;19.06;64.43;101370.00;5033337;27;97347;-55
2023/09/28 06:59:42;;;;;;;5.50;4.67;;;;;;;19.08;64.30;101372.22;5035399;27;97338;-55
2023/09/28 07:02:08;;;;;;;5.83;5.27;;;;;;;19.09;64.22;101379.34;5036704;27;97101;-56
2023/09/28 07:04:34;;;;;;;6.13;5.57;;;;;;;19.10;64.18;101380.81;5037062;27;97912;-56
2023/09/28 07:07:00;;;;;;;4.80;4.40;;;;;;;19.10;64.25;101383.59;5038129;27;97576;-56
2023/09/28 07:09:25;;;;;;;7.47;4.90;;;;;;;19.11;64.44;101387.91;5039540;27;97245;-55
2023/09/28 07:11:51;;;;;;;5.73;4.77;;;;;;;19.13;64.25;101377.69;5036341;27;96930;-56
2023/09/28 07:14:16;;;;;;;6.73;5.27;;;;;;;19.15;64.25;101389.09;5035341;27;96742;-55
2023/09/28 07:16:41;;;;;;;4.90;4.50;;;;;;;19.22;64.38;101387.72;5036791;27;97117;-56
2023/09/28 07:19:07;;;;;;;5.10;4.60;;;;;;;19.26;64.36;101388.88;5038557;27;97053;-55
2023/09/28 07:21:32;;;;;;;6.37;5.07;;;;;;;19.33;64.46;101384.72;5036928;27;97121;-56
2023/09/28 07:23:59;;;;;;;5.10;4.43;;;;;;;19.42;64.30;101389.88;5036909;27;101085;-55
2023/09/28 07:26:25;;;;;;;5.20;4.80;;;;;;;19.48;64.35;101393.34;5037381;27;97318;-55
2023/09/28 07:28:51;;;;;;;4.80;4.40;;;;;;;19.55;64.28;101395.47;5035103;27;97391;-56
2023/09/28 07:31:17;;;;;;;5.77;5.23;;;;;;;19.64;64.53;101388.69;5036471;27;96763;-56
2023/09/28 07:33:43;;;;;;;4.87;4.50;;;;;;;19.72;64.32;101392.38;5037519;27;97422;-56
2023/09/28 07:36:08;;;;;;;5.10;4.70;;;;;;;19.79;64.41;101380.53;5039565;27;97359;-56
2023/09/28 07:38:34;;;;;;;7.47;5.00;;;;;;;19.83;64.52;101392.13;5035701;27;97090;-56
2023/09/28 07:41:00;;;;;;;4.77;4.37;;;;;;;19.86;64.55;101400.19;5037999;27;96860;-56
2023/09/28 07:43:26;;;;;;;5.30;4.80;;;;;;;19.88;64.66;101400.38;5033991;27;97017;-56
2023/09/28 07:45:51;;;;;;;5.50;4.70;;;;;;;19.90;64.65;101400.59;5036292;27;97451;-56
2023/09/28 07:48:17;;;;;;;5.67;5.17;;;;;;;19.91;64.51;101406.94;5040667;27;97126;-56
2023/09/28 07:50:42;;;;;;;5.80;5.30;;;;;;;19.93;64.66;101412.75;5037248;27;96941;-56
2023/09/28 07:53:07;;;;;;;5.27;4.77;;;;;;;19.94;64.50;101406.59;5035733;27;96684;-56
2023/09/28 07:55:34;;;;;;;5.07;4.67;;;;;;;19.97;64.76;101415.94;5036956;27;107055;-56
2023/09/28 07:57:59;;;;;;;8.40;4.27;;;;;;;20.04;64.65;101420.88;5040159;27;97488;-56
2023/09/28 08:00:24;;;;;;;5.23;4.73;;;;;;;20.07;64.73;101425.41;5038350;27;97269;-56
2023/09/28 08:02:50;;;;;;;5.70;4.90;;;;;;;20.12;64.73;101422.47;5036461;27;105169;-56
2023/09/28 08:05:15;;;;;;;4.83;4.17;;;;;;;20.19;64.53;101421.06;5034592;27;97233;-56
2023/09/28 08:07:42;;;;;;;5.03;4.60;;;;;;;20.26;64.79;101425.28;5032908;27;97153;-56
2023/09/28 08:10:09;;;;;;;4.30;3.90;;;;;;;20.34;64.70;101421.28;5036574;27;97213;-56
2023/09/28 08:12:36;;;;;;;4.80;4.43;;;;;;;20.45;64.80;101423.81;5037539;27;98001;-56
2023/09/28 08:15:01;;;;;;;4.10;3.80;;;;;;;20.58;64.73;101425.81;5037477;27;100151;-56
2023/09/28 08:17:26;;;;;;;3.93;3.60;;;;;;;20.70;64.67;101429.88;5036809;27;97211;-55
2023/09/28 08:19:52;;;;;;;3.80;3.50;;;;;;;20.86;64.60;101437.84;5036637;27;96900;-56
2023/09/28 08:22:17;;;;;;;5.20;3.20;;;;;;;21.07;64.48;101439.94;5035829;27;107312;-56
2023/09/28 08:24:43;;;;;;;5.37;3.20;;;;;;;21.22;64.24;101440.03;5036327;27;97128;-56
2023/09/28 08:27:09;;;;;;;3.83;3.50;;;;;;;21.40;63.84;101453.06;5036544;27;96962;-55
2023/09/28 08:29:35;;;;;;;3.20;2.90;;;;;;;21.60;63.53;101457.88;5036973;27;97370;-56
2023/09/28 08:32:01;;;;;;;3.07;2.87;;;;;;;21.79;63.19;101458.38;5034868;27;97311;-55
2023/09/28 08:34:26;;;;;;;5.80;2.90;;;;;;;22.00;62.77;101461.09;5035460;27;97179;-55
2023/09/28 08:36:52;;;;;;;3.10;2.90;;;;;;;22.16;62.60;101457.84;5036974;27;97160;-56
2023/09/28 08:39:17;;;;;;;5.37;2.63;;;;;;;22.35;62.44;101454.72;5035815;27;96869;-55
2023/09/28 08:41:53;;;;;;;2.60;2.40;;;;;;;22.50;62.19;101456.84;5035615;27;99343;-56
2023/09/28 08:44:24;;;;;;;3.27;3.03;;;;;;;22.65;61.44;101462.53;5035337;27;97353;-55
2023/09/28 08:46:58;;;;;;;4.67;3.03;;;;;;;22.78;61.11;101471.50;5036026;27;97219;-55
2023/09/28 08:49:25;;;;;;;2.63;2.43;;;;;;;22.93;61.33;101477.13;5038354;27;96988;-56
2023/09/28 08:51:54;;;;;;;3.37;2.70;;;;;;;23.07;60.88;101486.16;5033924;27;96718;-55
2023/09/28 08:54:21;;;;;;;3.10;2.70;;;;;;;23.19;60.92;101478.88;5038019;27;96642;-56
2023/09/28 08:56:48;;;;;;;5.20;2.83;;;;;;;23.31;60.39;101487.66;5034909;27;97243;-55
2023/09/28 08:59:16;;;;;;;3.17;2.87;;;;;;;23.42;60.59;101493.69;5036680;27;97604;-56
2023/09/28 09:01:42;;;;;;;2.97;2.33;;;;;;;23.51;60.22;101484.69;5034921;27;97103;-57
2023/09/28 09:04:09;;;;;;;2.73;2.50;;;;;;;23.60;59.86;101492.53;5036418;27;97810;-56
2023/09/28 09:06:35;;;;;;;3.73;2.97;;;;;;;23.70;60.00;101481.47;5038184;27;101480;-56
2023/09/28 09:09:03;;;;;;;4.10;2.83;;;;;;;23.80;59.55;101479.59;5037981;27;97487;-56
2023/09/28 09:11:30;;;;;;;3.03;2.63;;;;;;;23.88;59.80;101485.94;5034330;27;96952;-56
2023/09/28 09:13:55;;;;;;;2.73;2.53;;;;;;;23.96;59.82;101497.91;5036330;27;97129;-55
2023/09/28 09:16:26;;;;;;;5.07;2.63;;;;;;;24.03;59.06;101499.94;5034856;27;97092;-55
2023/09/28 09:18:55;;;;;;;4.83;2.80;;;;;;;24.08;59.28;101498.28;5038051;27;97249;-56
2023/09/28 09:21:21;;;;;;;3.77;2.70;;;;;;;24.15;58.92;101495.44;5032715;27;97485;-56
2023/09/28 09:24:10;;;;;;;2.97;2.53;;;;;;;24.20;58.73;101494.47;5035036;27;97189;-56
2023/09/28 09:26:43;;;;;;;2.93;2.73;;;;;;;24.26;59.01;101494.28;5038327;27;100949;-56
2023/09/28 09:29:11;;;;;;;2.50;2.10;;;;;;;24.30;59.27;101494.63;5034942;27;97437;-57
2023/09/28 09:31:41;;;;;;;2.50;2.27;;;;;;;24.35;58.84;101480.34;5037283;27;97640;-57
2023/09/28 09:34:17;;;;;;;2.40;2.20;;;;;;;24.43;58.66;101483.13;5034167;27;97170;-56
2023/09/28 09:36:48;;;;;;;3.27;2.73;;;;;;;24.49;58.62;101484.41;5035085;27;97613;-56
2023/09/28 09:39:25;;;;;;;4.93;2.93;;;;;;;24.56;58.20;101472.38;5035054;27;97024;-56
2023/09/28 09:41:52;;;;;;;3.03;2.60;;;;;;;24.61;58.55;101478.34;5038821;27;97411;-56
2023/09/28 09:44:23;;;;;;;3.70;3.00;;;;;;;24.67;57.87;101479.63;5033699;27;97209;-56
2023/09/28 09:46:53;;;;;;;2.93;2.70;;;;;;;24.72;58.00;101494.81;5036438;27;96773;-56
2023/09/28 09:49:19;;;;;;;3.20;2.70;;;;;;;24.79;58.00;101503.22;5035526;27;97768;-56
2023/09/28 09:51:48;;;;;;;4.50;3.00;;;;;;;24.87;57.50;101483.47;5032756;27;97156;-57
2023/09/28 09:54:14;;;;;;;6.77;2.47;;;;;;;24.94;57.42;101474.25;5034040;27;96900;-57
2023/09/28 09:56:46;;;;;;;3.40;3.03;;;;;;;25.00;57.59;101475.50;5035288;27;96798;-56
2023/09/28 09:59:22;;;;;;;3.10;2.80;;;;;;;25.06;56.66;101483.72;5033297;27;96742;-55
2023/09/28 10:01:50;;;;;;;4.07;3.30;;;;;;;25.09;56.95;101493.84;5035387;27;97414;-56
2023/09/28 10:04:18;;;;;;;3.43;2.80;;;;;;;25.09;56.80;101488.97;5033167;27;96786;-56
2023/09/28 10:06:47;;;;;;;2.40;2.20;;;;;;;25.15;56.80;101486.66;5031917;27;97129;-56
2023/09/28 10:09:14;;;;;;;3.10;2.67;;;;;;;25.21;56.55;101484.34;5036786;27;97128;-57
2023/09/28 10:11:40;;;;;;;2.70;2.50;;;;;;;25.27;56.56;101486.94;5033514;27;97165;-56
2023/09/28 10:14:07;;;;;;;3.37;2.80;;;;;;;25.32;56.55;101483.13;5033055;27;97618;-57
2023/09/28 10:16:35;;;;;;;2.90;2.47;;;;;;;25.39;56.18;101484.38;5031902;27;97339;-56
2023/09/28 10:19:04;;;;;;;3.03;2.83;;;;;;;25.44;56.25;101489.06;5035239;27;97263;-56
2023/09/28 10:21:34;;;;;;;4.40;2.90;;;;;;;25.45;55.85;101482.09;5031812;27;97920;-57
2023/09/28 10:24:07;;;;;;;3.43;2.80;;;;;;;25.50;55.33;101498.03;5036334;27;97053;-56
2023/09/28 10:26:33;;;;;;;2.73;2.30;;;;;;;25.54;55.86;101493.47;5034308;27;97747;-57
2023/09/28 10:29:06;;;;;;;3.60;3.10;;;;;;;25.64;55.66;101497.13;5038136;27;97071;-57
2023/09/28 10:31:36;;;;;;;3.57;3.27;;;;;;;25.68;55.51;101505.19;5034622;27;97404;-57
2023/09/28 10:34:05;;;;;;;3.40;2.67;;;;;;;25.73;55.20;101507.03;5032292;27;96786;-57
2023/09/28 10:36:32;;;;;;;3.00;2.80;;;;;;;25.81;55.23;101493.59;5034898;27;96972;-57
2023/09/28 10:39:14;;;;;;;8.83;2.67;;;;;;;25.88;54.47;101504.06;5034343;27;97385;-57
2023/09/28 10:41:47;;;;;;;2.87;2.33;;;;;;;25.89;54.92;101503.47;5034213;27;97267;-56
2023/09/28 10:44:16;;;;;;;3.23;2.80;;;;;;;25.92;54.87;101510.78;5031602;27;96816;-56
2023/09/28 10:46:42;;;;;;;2.43;2.23;;;;;;;26.00;54.88;101510.69;5036704;27;96954;-57
2023/09/28 10:49:08;;;;;;;3.30;2.40;;;;;;;26.07;54.53;101512.69;5037433;27;96994;-57
2023/09/28 10:51:34;;;;;;;3.07;2.33;;;;;;;26.12;54.55;101513.78;5034569;27;97754;-57
2023/09/28 10:54:04;;;;;;;3.23;2.63;;;;;;;26.19;54.28;101498.84;5035168;27;97107;-56
2023/09/28 10:56:30;;;;;;;2.97;2.73;;;;;;;26.24;54.19;101498.59;5032591;27;97061;-56
2023/09/28 10:58:56;;;;;;;2.20;2.10;;;;;;;26.30;54.37;101499.06;5033050;27;97226;-57
2023/09/28 11:01:22;;;;;;;3.37;2.40;;;;;;;26.40;53.86;101491.44;5031678;27;96991;-57
2023/09/28 11:03:50;;;;;;;2.20;2.10;;;;;;;26.38;53.87;101482.81;5031444;27;97139;-56
2023/09/28 11:06:16;;;;;;;2.57;2.17;;;;;;;26.42;53.59;101483.13;5036792;27;97200;-57
2023/09/28 11:08:42;;;;;;;5.83;3.20;;;;;;;26.50;53.34;101477.38;5035439;27;96855;-57
2023/09/28 11:11:08;;;;;;;2.33;2.13;;;;;;;26.57;53.70;101482.16;5032776;27;97176;-57
2023/09/28 11:13:34;;;;;;;3.10;2.40;;;;;;;26.68;53.49;101481.63;5033022;27;97310;-57
2023/09/28 11:16:00;;;;;;;2.93;2.37;;;;;;;26.77;53.19;101485.88;5036159;27;97066;-57
2023/09/28 11:18:26;;;;;;;2.37;2.10;;;;;;;26.89;53.08;101489.66;5036401;27;97200;-57
2023/09/28 11:20:54;;;;;;;3.00;2.57;;;;;;;26.98;52.89;101498.16;5034367;27;97077;-57
2023/09/28 11:23:19;;;;;;;2.30;2.20;;;;;;;27.12;52.82;101502.09;5030325;27;97011;-55